Terminal Aerodrome Forecast
Issued by NWS

Current Version | Previous Version | Text Only | Print | Product List | Glossary On
Versions: 1 2 3 4 5 6 7 8 9 10 11 12 13 14
801
FTUS46 KMTR 292025 AAA
TAFSJC
TAF AMD
KSJC 292025Z 2920/3018 33010KT P6SM SCT200
     FM292100 30015G22KT P6SM SKC
     FM300500 31008KT P6SM SCT200
     FM301100 VRB03KT P6SM OVC017
     FM301700 32006KT P6SM BKN017=

USA.gov is the U.S. government's official web portal to all federal, state and local government web resources and services.